createdAt,value
2023-05-14T00:05:22.861Z,95.6635
2023-05-14T00:06:23.772Z,96.0410
2023-05-14T00:07:24.662Z,96.3059
2023-05-14T00:08:25.549Z,95.8449
2023-05-14T00:09:26.401Z,95.0995
2023-05-14T00:10:27.265Z,95.6066
2023-05-14T00:11:28.127Z,96.4119
2023-05-14T00:12:29.037Z,96.6910
2023-05-14T00:13:29.927Z,96.8145
2023-05-14T00:14:30.764Z,96.3080
2023-05-14T00:15:33.622Z,95.9309
2023-05-14T00:16:32.436Z,95.7665
2023-05-14T00:17:34.390Z,95.9496
2023-05-14T00:18:36.221Z,95.9800
2023-05-14T00:19:41.105Z,96.0140
2023-05-14T00:21:41.372Z,96.3678
2023-05-14T00:22:43.924Z,96.4568
2023-05-14T00:23:44.799Z,96.3657
2023-05-14T00:24:46.294Z,96.0096
2023-05-14T00:25:47.973Z,95.8867
2023-05-14T00:26:48.871Z,95.8180
2023-05-14T00:27:50.371Z,96.1366
2023-05-14T00:28:51.905Z,96.4287
2023-05-14T00:29:53.236Z,96.5183
2023-05-14T00:30:54.750Z,96.7181
2023-05-14T00:31:55.664Z,96.6855
2023-05-14T00:32:56.581Z,96.3163
2023-05-14T00:33:58.075Z,96.3101
2023-05-14T00:34:59.562Z,96.3310
2023-05-14T00:36:00.441Z,96.4236
2023-05-14T00:37:01.364Z,96.7304
2023-05-14T00:38:02.602Z,96.3430
2023-05-14T00:39:03.484Z,96.1011
2023-05-14T00:40:04.625Z,96.0013
2023-05-14T00:41:05.555Z,95.4748
2023-05-14T00:42:06.488Z,95.6651
2023-05-14T00:43:07.346Z,95.7396
2023-05-14T00:44:08.244Z,95.9502
2023-05-14T00:45:09.087Z,96.1337
2023-05-14T00:46:10.225Z,96.3132
2023-05-14T00:47:11.109Z,96.3968
2023-05-14T00:48:11.962Z,96.3067
2023-05-14T00:49:12.827Z,96.2500
2023-05-14T00:50:13.709Z,96.4734
2023-05-14T00:51:14.581Z,96.4974
2023-05-14T00:52:16.066Z,96.4497
2023-05-14T00:53:17.572Z,96.5084
2023-05-14T00:54:18.455Z,96.7238
2023-05-14T00:55:20.803Z,96.2309
2023-05-14T00:56:22.417Z,96.1466
2023-05-14T00:57:23.306Z,96.2743
2023-05-14T00:58:24.168Z,96.2995
2023-05-14T01:00:26.144Z,95.7446
2023-05-14T01:01:27.133Z,95.6527
2023-05-14T01:02:28.090Z,95.7547
2023-05-14T01:03:30.080Z,95.6497
2023-05-14T01:04:31.035Z,95.7235
2023-05-14T01:05:31.924Z,95.8269
2023-05-14T01:06:33.754Z,95.8078
2023-05-14T01:07:34.650Z,95.6664
2023-05-14T01:08:36.162Z,95.6428
2023-05-14T01:09:37.053Z,95.7019
2023-05-14T01:10:37.967Z,95.3957
2023-05-14T01:11:39.429Z,95.2772
2023-05-14T01:12:40.331Z,95.8184
2023-05-14T01:13:41.245Z,95.7031
2023-05-14T01:14:42.181Z,96.1973
2023-05-14T01:15:43.387Z,96.5791
2023-05-14T01:16:44.292Z,96.3278
2023-05-14T01:17:46.021Z,95.9539
2023-05-14T01:18:47.678Z,96.1876
2023-05-14T01:19:48.597Z,95.4548
2023-05-14T01:20:50.137Z,94.9530
2023-05-14T01:21:51.108Z,94.9577
2023-05-14T01:22:51.992Z,95.1556
2023-05-14T01:23:52.930Z,94.9767
2023-05-14T01:24:54.904Z,94.9499
2023-05-14T01:25:55.844Z,95.2031
2023-05-14T01:26:57.316Z,95.3687
2023-05-14T01:27:58.841Z,95.5410
2023-05-14T01:29:00.499Z,95.5924
2023-05-14T01:30:01.396Z,95.9330
2023-05-14T01:31:03.160Z,96.0782
2023-05-14T01:32:04.896Z,95.9998
2023-05-14T01:33:06.006Z,96.0702
2023-05-14T01:34:07.831Z,95.5674
2023-05-14T01:35:09.395Z,95.2692
2023-05-14T01:36:10.293Z,95.2361
2023-05-14T01:37:11.217Z,95.3462
2023-05-14T01:38:12.152Z,95.3865
2023-05-14T01:39:13.100Z,95.4126
2023-05-14T01:41:14.809Z,95.9016
2023-05-14T01:42:15.759Z,95.9042
2023-05-14T01:43:16.720Z,96.2233
2023-05-14T01:44:17.675Z,96.5797
2023-05-14T01:45:18.609Z,96.3638
2023-05-14T01:46:19.785Z,95.6696
2023-05-14T01:47:20.762Z,95.5617
2023-05-14T01:48:21.744Z,95.7117
2023-05-14T01:49:22.706Z,95.9955
2023-05-14T01:50:23.740Z,96.2847
2023-05-14T01:51:24.725Z,96.0183
2023-05-14T01:52:25.630Z,96.0061
2023-05-14T01:53:26.549Z,95.9546
2023-05-14T01:54:27.457Z,96.2491
2023-05-14T01:55:28.553Z,96.1160
2023-05-14T01:56:29.536Z,96.0731
2023-05-14T01:57:30.428Z,95.8944
2023-05-14T01:59:32.096Z,96.1949
2023-05-14T02:00:33.027Z,96.3500
2023-05-14T02:01:34.449Z,96.4463
2023-05-14T02:02:35.452Z,96.5403
2023-05-14T02:03:36.416Z,96.7338
2023-05-14T02:04:37.354Z,96.3783
2023-05-14T02:05:38.278Z,96.5413
2023-05-14T02:06:39.204Z,96.8994
2023-05-14T02:07:40.121Z,97.1323
2023-05-14T02:08:41.109Z,97.3459
2023-05-14T02:09:42.012Z,97.2494
2023-05-14T02:10:42.972Z,96.9933
2023-05-14T02:11:43.923Z,96.6188
2023-05-14T02:12:45.009Z,96.3141
2023-05-14T02:13:45.906Z,96.1715
2023-05-14T02:14:46.861Z,96.6823
2023-05-14T02:15:47.819Z,96.6491
2023-05-14T02:16:48.743Z,96.4349
2023-05-14T02:17:49.697Z,96.5005
2023-05-14T02:18:50.704Z,96.6267
2023-05-14T02:19:51.672Z,96.7123
2023-05-14T02:20:52.615Z,96.8008
2023-05-14T02:21:53.537Z,96.8039
2023-05-14T02:22:54.497Z,96.2070
2023-05-14T02:23:55.432Z,96.4922
2023-05-14T02:24:56.362Z,96.5385
2023-05-14T02:25:57.486Z,96.7435
2023-05-14T02:27:00.196Z,96.8095
2023-05-14T02:28:01.081Z,96.8976
2023-05-14T02:29:02.249Z,97.2330
2023-05-14T02:30:03.137Z,97.0121
2023-05-14T02:31:04.096Z,96.4418
2023-05-14T02:32:05.772Z,96.4226
2023-05-14T02:33:07.456Z,96.5382
2023-05-14T02:34:09.029Z,96.2843
2023-05-14T02:35:10.327Z,96.2169
2023-05-14T02:36:11.870Z,95.9925
2023-05-14T02:37:13.412Z,96.2426
2023-05-14T02:39:15.789Z,96.4997
2023-05-14T02:40:16.720Z,96.6950
2023-05-14T02:41:18.323Z,96.8055
2023-05-14T02:42:19.323Z,97.1675
2023-05-14T02:43:20.282Z,97.2968
2023-05-14T02:52:27.987Z,98.0277
2023-05-14T02:53:28.933Z,98.0093
2023-05-14T02:54:29.860Z,97.8671
2023-05-14T02:55:30.829Z,97.7592
2023-05-14T02:56:31.764Z,97.9491
2023-05-14T02:58:34.808Z,98.0123
2023-05-14T02:59:35.956Z,97.7781
2023-05-14T03:00:37.126Z,97.7744
2023-05-14T03:01:38.658Z,97.7590
2023-05-14T03:07:43.740Z,98.1539
2023-05-14T03:08:44.654Z,98.1313
2023-05-14T03:12:49.137Z,97.8334
2023-05-14T03:13:50.076Z,97.8026
2023-05-14T03:14:51.123Z,97.6368
2023-05-14T03:15:52.643Z,97.4437
2023-05-14T03:16:53.798Z,97.7278
2023-05-14T03:17:54.763Z,97.8975
2023-05-14T03:18:55.952Z,98.0231
2023-05-14T03:19:56.867Z,98.0873
2023-05-14T03:21:59.511Z,98.0055
2023-05-14T03:23:00.453Z,98.2599
2023-05-14T03:24:01.372Z,98.3991
2023-05-14T03:25:03.401Z,98.4428
2023-05-14T03:26:04.541Z,98.4901
2023-05-14T03:27:05.482Z,98.4964
2023-05-14T03:28:06.467Z,98.6089
2023-05-14T03:29:07.405Z,98.6767
2023-05-14T03:30:08.379Z,98.7977
2023-05-14T03:31:09.351Z,98.9352
2023-05-14T03:32:10.266Z,98.9542
2023-05-14T03:33:11.175Z,99.0572
2023-05-14T03:34:12.159Z,99.2021
2023-05-14T03:35:13.082Z,99.2822
2023-05-14T03:36:14.036Z,99.3963
2023-05-14T03:37:14.936Z,99.4169
2023-05-14T03:38:15.922Z,99.4699
2023-05-14T03:39:16.839Z,99.5695
2023-05-14T03:40:17.782Z,99.5996
2023-05-14T03:42:19.540Z,99.7080
2023-05-14T03:43:20.532Z,99.6961
2023-05-14T03:44:21.464Z,99.5670
2023-05-14T03:45:22.415Z,99.4102
2023-05-14T03:46:23.598Z,99.3997
2023-05-14T03:47:24.500Z,99.4578
2023-05-14T03:48:25.560Z,99.5643
2023-05-14T03:49:26.610Z,99.6169
2023-05-14T03:50:27.619Z,99.7159
2023-05-14T03:51:28.554Z,99.7553
2023-05-14T03:52:29.761Z,99.8203
2023-05-14T03:53:30.717Z,99.8621
2023-05-14T03:54:32.881Z,99.8901
2023-05-14T03:55:34.452Z,99.9517
2023-05-14T03:56:36.070Z,99.9951
2023-05-14T03:57:37.037Z,99.9983
2023-05-14T03:58:38.567Z,99.9957
2023-05-14T03:59:40.135Z,99.9778
2023-05-14T04:00:41.086Z,99.8470
2023-05-14T04:01:43.403Z,99.7394
2023-05-14T04:02:44.785Z,99.6337
2023-05-14T04:03:46.182Z,99.5464
2023-05-14T04:05:48.110Z,99.5709
2023-05-14T04:06:49.021Z,99.5801
2023-05-14T04:09:51.815Z,99.3117
2023-05-14T04:13:55.688Z,98.8568
2023-05-14T04:14:56.655Z,98.9686
2023-05-14T04:15:57.641Z,98.9402
2023-05-14T04:17:00.104Z,98.6013
2023-05-14T04:18:01.236Z,98.5173
2023-05-14T04:19:02.271Z,98.4844
2023-05-14T04:20:03.982Z,97.9188
2023-05-14T04:22:06.691Z,97.4845
2023-05-14T04:23:08.212Z,97.2291
2023-05-14T04:25:10.623Z,97.8836
2023-05-14T04:26:11.556Z,97.8829
2023-05-14T04:27:12.560Z,97.7143
2023-05-14T04:28:14.733Z,97.3120
2023-05-14T04:29:16.283Z,97.0512
2023-05-14T04:30:17.828Z,96.8891
2023-05-14T04:31:18.853Z,96.1127
2023-05-14T04:32:20.458Z,96.2134
2023-05-14T04:33:22.049Z,96.5045
2023-05-14T04:34:22.963Z,96.3275
2023-05-14T04:35:25.258Z,96.7027
2023-05-14T04:36:26.896Z,96.8087
2023-05-14T04:37:27.850Z,96.3245
2023-05-14T04:38:29.432Z,96.2016
2023-05-14T04:39:30.333Z,96.4973
2023-05-14T04:40:31.220Z,96.7900
2023-05-14T04:41:32.932Z,96.4718
2023-05-14T04:42:34.480Z,96.2683
2023-05-14T04:43:35.977Z,96.1511
2023-05-14T04:44:36.884Z,95.6127
2023-05-14T04:45:38.430Z,95.4132
2023-05-14T04:46:39.407Z,94.9421
2023-05-14T04:47:40.389Z,95.2130
2023-05-14T04:48:41.669Z,95.5176
2023-05-14T04:49:43.182Z,94.8704
2023-05-14T04:50:45.227Z,94.5234
2023-05-14T04:51:46.157Z,94.0060
2023-05-14T04:52:47.101Z,94.2274
2023-05-14T04:53:48.005Z,94.8443
2023-05-14T04:54:48.967Z,95.3201
2023-05-14T04:55:49.886Z,95.5421
2023-05-14T04:56:50.812Z,95.2985
2023-05-14T04:57:51.728Z,95.3721
2023-05-14T04:58:52.663Z,95.2045
2023-05-14T04:59:53.575Z,94.9338
2023-05-14T05:00:54.512Z,94.6980
2023-05-14T05:01:55.454Z,94.8582
2023-05-14T05:02:56.405Z,95.3194
2023-05-14T05:03:57.315Z,95.3597
2023-05-14T05:04:58.260Z,94.7021
2023-05-14T05:05:59.200Z,93.9036
2023-05-14T05:07:00.130Z,94.3298
2023-05-14T05:08:01.046Z,93.8362
2023-05-14T05:09:02.239Z,92.8360
2023-05-14T05:10:03.328Z,92.5377
2023-05-14T05:11:04.914Z,92.7143
2023-05-14T05:12:06.642Z,93.1939
2023-05-14T05:13:08.211Z,92.2982
2023-05-14T05:14:09.225Z,91.7066
2023-05-14T05:15:10.831Z,92.4484
2023-05-14T05:16:12.409Z,92.8252
2023-05-14T05:17:14.430Z,92.8495
2023-05-14T05:18:15.894Z,92.4825
2023-05-14T05:19:16.992Z,91.9013
2023-05-14T05:20:18.520Z,91.9011
2023-05-14T05:21:20.335Z,92.2586
2023-05-14T05:22:21.240Z,92.4428
2023-05-14T05:23:22.131Z,91.3513
2023-05-14T05:24:23.075Z,91.6866
2023-05-14T05:25:24.009Z,92.4278
2023-05-14T05:26:24.928Z,91.7478
2023-05-14T05:27:25.845Z,91.3100
2023-05-14T05:28:26.834Z,91.1575
2023-05-14T05:29:27.729Z,90.7961
2023-05-14T05:30:28.676Z,90.9128
2023-05-14T05:31:30.780Z,91.0772
2023-05-14T05:32:31.792Z,90.5639
2023-05-14T05:33:33.329Z,90.2498
2023-05-14T05:34:34.979Z,90.4455
2023-05-14T05:36:37.331Z,90.0593
2023-05-14T05:37:38.891Z,89.7253
2023-05-14T05:38:39.793Z,90.1454
2023-05-14T05:39:40.757Z,90.2218
2023-05-14T05:40:42.246Z,90.2243
2023-05-14T05:41:43.167Z,91.0536
2023-05-14T05:42:44.115Z,91.1644
2023-05-14T05:43:45.656Z,89.8265
2023-05-14T05:44:47.193Z,89.8718
2023-05-14T05:45:48.147Z,89.9338
2023-05-14T05:47:49.856Z,90.3527
2023-05-14T05:48:50.764Z,89.3014
2023-05-14T05:50:53.333Z,88.5894
2023-05-14T05:51:54.244Z,88.8358
2023-05-14T05:52:55.160Z,88.3997
2023-05-14T05:54:57.309Z,87.8844
2023-05-14T05:55:58.230Z,87.3929
2023-05-14T05:56:59.107Z,87.2667
2023-05-14T05:59:01.789Z,86.5144
2023-05-14T06:00:03.973Z,86.3693
2023-05-14T06:01:04.873Z,86.9060
2023-05-14T06:02:05.808Z,87.6812
2023-05-14T06:03:06.746Z,89.0009
2023-05-14T06:04:07.666Z,89.1404
2023-05-14T06:05:08.595Z,88.1819
2023-05-14T06:06:09.547Z,88.4318
2023-05-14T06:07:10.587Z,88.1414
2023-05-14T06:08:11.740Z,89.3089
2023-05-14T06:09:12.661Z,89.3871
2023-05-14T06:10:13.600Z,90.3202
2023-05-14T06:11:15.107Z,90.6036
2023-05-14T06:12:16.637Z,91.3252
2023-05-14T06:13:18.530Z,91.8996
2023-05-14T06:14:19.444Z,91.2013
2023-05-14T06:16:21.282Z,91.6351
2023-05-14T06:17:22.294Z,91.5832
2023-05-14T06:19:24.604Z,91.6370
2023-05-14T06:20:26.146Z,91.3002
2023-05-14T06:21:27.169Z,91.1038
2023-05-14T06:22:28.684Z,91.0624
2023-05-14T06:23:30.236Z,91.8114
2023-05-14T06:24:31.816Z,91.6864
2023-05-14T06:25:33.813Z,92.0241
2023-05-14T06:26:34.694Z,92.5218
2023-05-14T06:27:36.250Z,92.1467
2023-05-14T06:28:37.703Z,92.0809
2023-05-14T06:29:38.590Z,92.0880
2023-05-14T06:30:39.481Z,92.3942
2023-05-14T06:31:41.104Z,91.8647
2023-05-14T06:32:42.672Z,91.9515
2023-05-14T06:33:43.575Z,91.9488
2023-05-14T06:34:45.142Z,91.4201
2023-05-14T06:35:46.673Z,91.1506
2023-05-14T06:36:47.596Z,91.0150
2023-05-14T06:37:48.477Z,90.8745
2023-05-14T06:38:50.238Z,90.8170
2023-05-14T06:39:51.158Z,90.7025
2023-05-14T06:40:52.118Z,91.1241
2023-05-14T06:41:53.745Z,91.0652
2023-05-14T06:42:54.700Z,91.7341
2023-05-14T06:43:54.997Z,91.7836
2023-05-14T06:45:01.527Z,91.4744
2023-05-14T06:46:02.527Z,91.7259
2023-05-14T06:51:06.807Z,91.5511
2023-05-14T06:52:24.528Z,90.9807
2023-05-14T06:53:08.921Z,91.3530
2023-05-14T06:54:09.890Z,91.5817
2023-05-14T06:55:10.818Z,92.0870
2023-05-14T06:56:12.060Z,91.7578
2023-05-14T06:57:13.718Z,91.6883
2023-05-14T06:58:14.666Z,91.4549
2023-05-14T06:59:16.214Z,91.8493
2023-05-14T07:00:17.827Z,91.9087
2023-05-14T07:01:19.857Z,90.4784
2023-05-14T07:03:22.276Z,91.3332
2023-05-14T07:04:23.269Z,91.2782
2023-05-14T07:05:24.228Z,91.5482
2023-05-14T07:07:25.954Z,92.6200
2023-05-14T07:08:26.893Z,93.3699
2023-05-14T07:10:28.883Z,93.0755
2023-05-14T07:11:29.778Z,93.1157
2023-05-14T07:12:30.740Z,93.0058
2023-05-14T07:14:32.507Z,92.9489
2023-05-14T07:15:33.437Z,93.3088
2023-05-14T07:16:34.393Z,93.5552
2023-05-14T07:17:35.450Z,92.9952
2023-05-14T07:18:36.409Z,93.6238
2023-05-14T07:19:37.373Z,93.4791
2023-05-14T07:20:38.344Z,93.6247
2023-05-14T07:21:39.310Z,94.3900
2023-05-14T07:22:40.319Z,94.7948
2023-05-14T07:23:41.282Z,94.9025
2023-05-14T07:24:42.247Z,94.6461
2023-05-14T07:25:43.210Z,94.0392
2023-05-14T07:26:44.190Z,93.7781
2023-05-14T07:27:45.164Z,93.7423
2023-05-14T07:28:46.093Z,93.5635
2023-05-14T07:29:47.015Z,92.4974
2023-05-14T07:30:47.915Z,90.9525
2023-05-14T07:31:49.023Z,90.4186
2023-05-14T07:32:50.012Z,90.6020
2023-05-14T07:33:50.925Z,90.0941
2023-05-14T07:34:51.852Z,89.1053
2023-05-14T07:35:52.791Z,88.4120
2023-05-14T07:36:54.342Z,86.8557
2023-05-14T07:37:55.870Z,88.8313
2023-05-14T07:38:57.117Z,88.5450
2023-05-14T07:39:58.642Z,89.1756
2023-05-14T07:40:59.547Z,90.0930
2023-05-14T07:43:01.952Z,89.9904
2023-05-14T07:44:02.846Z,88.5860
2023-05-14T07:45:03.778Z,88.9576
2023-05-14T07:46:05.228Z,87.2809
2023-05-14T07:47:06.162Z,85.0989
2023-05-14T07:48:07.218Z,83.0849
2023-05-14T07:49:08.426Z,83.9952
2023-05-14T07:50:09.922Z,82.0281
2023-05-14T07:51:10.858Z,81.5855
2023-05-14T07:52:23.275Z,81.7864
2023-05-14T07:56:16.961Z,77.9159
2023-05-14T07:57:17.869Z,78.2307
2023-05-14T07:58:19.419Z,80.1891
2023-05-14T07:59:20.967Z,81.1554
2023-05-14T08:00:22.054Z,79.6377
2023-05-14T08:01:23.784Z,81.3985
2023-05-14T08:02:24.768Z,84.0630
2023-05-14T08:03:42.947Z,84.7639
2023-05-14T08:04:44.487Z,84.8824
2023-05-14T08:05:45.436Z,83.4405
2023-05-14T08:06:46.290Z,80.6599
2023-05-14T08:07:47.806Z,79.9953
2023-05-14T08:08:48.730Z,80.5952
2023-05-14T08:09:50.175Z,83.7794
2023-05-14T08:10:51.152Z,81.4919
2023-05-14T08:11:52.415Z,80.4079
2023-05-14T08:12:53.512Z,78.9030
2023-05-14T08:13:54.392Z,79.2624
2023-05-14T08:14:55.300Z,80.0354
2023-05-14T08:15:56.868Z,79.5666
2023-05-14T08:16:57.798Z,80.8833
2023-05-14T08:17:58.833Z,81.7216
2023-05-14T08:19:00.354Z,83.1659
2023-05-14T08:20:01.829Z,83.5009
2023-05-14T08:21:03.654Z,83.4352
2023-05-14T08:22:05.227Z,79.6905
2023-05-14T08:23:06.151Z,80.2691
2023-05-14T08:24:07.741Z,80.0623
2023-05-14T08:25:09.201Z,77.5606
2023-05-14T08:26:10.206Z,80.0304
2023-05-14T08:27:11.790Z,83.8609
2023-05-14T08:28:35.593Z,83.7396
2023-05-14T08:29:16.126Z,84.4084
2023-05-14T08:30:14.697Z,84.2183
2023-05-14T08:31:15.641Z,83.7805
2023-05-14T08:32:23.347Z,83.1753
2023-05-14T08:34:21.002Z,83.3307
2023-05-14T08:35:28.820Z,82.0517
2023-05-14T08:38:26.449Z,83.7072
2023-05-14T08:39:27.349Z,83.5806
2023-05-14T08:40:28.213Z,82.5325
2023-05-14T08:41:29.123Z,80.5214
2023-05-14T08:42:30.590Z,80.4302
2023-05-14T08:43:31.489Z,80.7296
2023-05-14T08:44:32.352Z,80.9756
2023-05-14T08:45:33.918Z,79.7642
2023-05-14T08:46:34.840Z,80.8628
2023-05-14T08:47:35.771Z,80.3122
2023-05-14T08:48:36.658Z,79.9008
2023-05-14T08:49:37.571Z,80.7743
2023-05-14T08:53:43.801Z,79.4092
2023-05-14T08:54:44.727Z,77.6185
2023-05-14T08:55:45.596Z,77.3935
2023-05-14T08:56:47.192Z,76.8309
2023-05-14T08:57:48.412Z,76.2155
2023-05-14T08:58:50.408Z,78.5395
2023-05-14T08:59:51.263Z,78.3030
2023-05-14T09:00:52.157Z,76.7190
2023-05-14T09:02:05.048Z,72.3913
2023-05-14T09:02:55.391Z,74.9724
2023-05-14T09:03:57.010Z,74.4152
2023-05-14T09:04:57.882Z,74.4672
2023-05-14T09:06:00.196Z,72.3387
2023-05-14T09:07:01.976Z,71.0933
2023-05-14T09:08:03.438Z,72.4176
2023-05-14T09:10:04.986Z,76.7957
2023-05-14T09:11:05.849Z,75.2043
2023-05-14T09:12:07.217Z,74.8100
2023-05-14T09:13:08.404Z,75.7850
2023-05-14T09:14:09.192Z,71.2483
2023-05-14T09:15:10.788Z,74.5614
2023-05-14T09:16:12.429Z,74.0571
2023-05-14T09:17:13.290Z,75.4937
2023-05-14T09:18:14.149Z,75.5814
2023-05-14T09:19:15.137Z,74.9548
2023-05-14T09:20:16.029Z,75.6760
2023-05-14T09:21:16.872Z,78.6355
2023-05-14T09:22:17.683Z,78.3345
2023-05-14T09:23:19.120Z,78.2546
2023-05-14T09:24:19.987Z,79.3841
2023-05-14T09:25:21.445Z,79.7221
2023-05-14T09:26:22.334Z,80.5002
2023-05-14T09:27:23.774Z,79.7335
2023-05-14T09:28:25.319Z,79.9947
2023-05-14T09:29:26.173Z,78.5268
2023-05-14T09:30:27.343Z,79.5132
2023-05-14T09:31:28.312Z,79.7060
2023-05-14T09:32:29.233Z,80.1953
2023-05-14T09:33:30.735Z,80.6632
2023-05-14T09:34:31.628Z,81.0133
2023-05-14T09:35:32.672Z,81.4394
2023-05-14T09:36:34.182Z,81.1700
2023-05-14T09:37:35.366Z,79.2245
2023-05-14T09:38:36.251Z,77.8152
2023-05-14T09:39:37.173Z,79.4471
2023-05-14T09:40:38.059Z,80.0563
2023-05-14T09:41:38.946Z,78.1375
2023-05-14T09:43:41.349Z,78.0746
2023-05-14T09:44:42.224Z,77.8547
2023-05-14T09:46:44.969Z,77.5337
2023-05-14T09:47:47.177Z,77.5032
2023-05-14T09:48:48.241Z,77.5237
2023-05-14T09:49:49.731Z,77.3552
2023-05-14T09:50:50.686Z,76.6713
2023-05-14T09:51:52.513Z,75.9667
2023-05-14T09:52:54.080Z,77.5040
2023-05-14T09:53:54.960Z,77.9503
2023-05-14T09:54:55.838Z,77.3140
2023-05-14T09:55:56.683Z,77.8539
2023-05-14T09:56:57.539Z,79.2595
2023-05-14T10:01:01.158Z,81.0625
2023-05-14T10:02:02.302Z,82.9446
2023-05-14T10:03:03.208Z,82.1106
2023-05-14T10:04:04.116Z,81.6798
2023-05-14T10:05:05.041Z,81.4359
2023-05-14T10:06:05.889Z,81.4911
2023-05-14T10:08:07.475Z,83.8862
2023-05-14T10:09:08.376Z,83.3117
2023-05-14T10:11:10.244Z,81.5400
2023-05-14T10:12:11.113Z,82.4620
2023-05-14T10:13:33.892Z,82.0938
2023-05-14T10:14:16.475Z,81.0832
2023-05-14T10:15:17.394Z,80.0403
2023-05-14T10:16:18.342Z,82.8215
2023-05-14T10:17:19.886Z,82.9411
2023-05-14T10:18:21.409Z,81.8807
2023-05-14T10:19:23.078Z,81.3998
2023-05-14T10:20:24.246Z,81.9331
2023-05-14T10:21:25.376Z,82.1843
2023-05-14T10:22:26.780Z,80.3955
2023-05-14T10:23:27.986Z,80.5972
2023-05-14T10:24:30.996Z,82.0209
2023-05-14T10:25:31.880Z,82.1243
2023-05-14T10:27:34.092Z,79.9137
2023-05-14T10:28:34.951Z,80.3965
2023-05-14T10:29:36.447Z,80.3187
2023-05-14T10:30:37.335Z,81.2464
2023-05-14T10:31:38.255Z,80.8087
2023-05-14T10:32:39.206Z,82.0311
2023-05-14T10:33:40.114Z,81.6272
2023-05-14T10:34:41.007Z,81.4263
2023-05-14T10:35:42.556Z,81.8442
2023-05-14T10:36:43.986Z,80.9727
2023-05-14T10:37:44.962Z,82.4410
2023-05-14T10:38:47.248Z,81.3259
2023-05-14T10:39:48.328Z,80.3292
2023-05-14T10:41:14.275Z,80.6349
2023-05-14T10:41:50.080Z,80.4358
2023-05-14T10:42:50.963Z,80.6211
2023-05-14T10:43:51.854Z,80.7778
2023-05-14T10:45:54.931Z,79.6131
2023-05-14T10:46:56.659Z,80.4350
2023-05-14T10:47:57.459Z,79.6348
2023-05-14T10:48:58.713Z,81.0311
2023-05-14T10:50:00.214Z,78.7953
2023-05-14T10:51:01.157Z,78.6367
2023-05-14T10:52:02.287Z,77.8914
2023-05-14T10:53:03.140Z,76.7019
2023-05-14T10:54:04.070Z,77.0316
2023-05-14T10:55:04.925Z,74.0554
2023-05-14T10:56:06.554Z,77.5424
2023-05-14T10:57:08.052Z,77.7032
2023-05-14T10:59:08.853Z,77.1805
2023-05-14T11:00:11.019Z,76.3143
2023-05-14T11:01:11.909Z,76.0103
2023-05-14T11:03:14.905Z,76.2869
2023-05-14T11:04:16.097Z,74.7893
2023-05-14T11:05:33.375Z,72.9019
2023-05-14T11:06:17.162Z,72.3071
2023-05-14T11:07:18.026Z,72.6131
2023-05-14T11:08:22.378Z,73.7308
2023-05-14T11:11:22.140Z,69.6953
2023-05-14T11:12:23.071Z,66.2952
2023-05-14T11:13:24.706Z,66.6883
2023-05-14T11:14:25.781Z,64.9066
2023-05-14T11:15:27.722Z,64.9707
2023-05-14T11:16:28.822Z,67.1438
2023-05-14T11:17:29.883Z,67.4602
2023-05-14T11:18:30.795Z,70.6340
2023-05-14T11:19:32.435Z,70.8031
2023-05-14T11:20:33.588Z,73.3988
2023-05-14T11:21:35.223Z,73.5641
2023-05-14T11:22:36.532Z,75.0493
2023-05-14T11:23:37.581Z,77.3709
2023-05-14T11:24:38.460Z,78.4213
2023-05-14T11:26:41.675Z,78.4500
2023-05-14T11:27:42.538Z,78.9817
2023-05-14T11:28:43.450Z,78.5484
2023-05-14T11:29:44.354Z,78.6281
2023-05-14T11:30:45.645Z,79.9347
2023-05-14T11:31:46.539Z,79.5118
2023-05-14T11:32:48.041Z,80.0399
2023-05-14T11:37:53.946Z,77.4857
2023-05-14T11:38:55.022Z,77.3921
2023-05-14T11:42:10.542Z,74.9636
2023-05-14T11:44:01.426Z,75.9777
2023-05-14T11:45:03.152Z,75.6667
2023-05-14T11:46:04.124Z,74.2628
2023-05-14T11:47:05.812Z,75.5891
2023-05-14T11:48:06.815Z,75.2584
2023-05-14T11:49:07.741Z,75.0789
2023-05-14T11:50:19.997Z,74.8643
2023-05-14T11:54:16.661Z,75.5457
2023-05-14T11:55:18.202Z,74.4454
2023-05-14T11:56:19.602Z,74.7295
2023-05-14T11:57:20.503Z,74.5384
2023-05-14T11:58:21.485Z,73.4546
2023-05-14T11:59:24.315Z,73.2528
2023-05-14T12:00:23.759Z,73.0069
2023-05-14T12:01:24.839Z,73.3753
2023-05-14T12:02:26.489Z,71.4653
2023-05-14T12:03:28.103Z,71.3231
2023-05-14T12:05:30.508Z,73.5536
2023-05-14T12:06:32.099Z,72.6880
2023-05-14T12:07:33.599Z,74.2200
2023-05-14T12:08:34.592Z,74.5229
2023-05-14T12:09:35.863Z,77.6454
2023-05-14T12:10:36.920Z,77.1697
2023-05-14T12:11:38.233Z,76.4500
2023-05-14T12:12:39.546Z,76.7664
2023-05-14T12:13:40.784Z,75.9575
2023-05-14T12:14:41.851Z,76.7389
2023-05-14T12:15:42.228Z,77.2033
2023-05-14T12:16:43.256Z,78.2139
2023-05-14T12:17:44.911Z,79.5633
2023-05-14T12:18:45.875Z,81.0213
2023-05-14T12:19:47.598Z,82.5890
2023-05-14T12:20:48.539Z,82.3237
2023-05-14T12:21:49.501Z,83.0631
2023-05-14T12:22:50.554Z,83.5302
2023-05-14T12:23:51.491Z,83.9542
2023-05-14T12:24:52.474Z,84.5657
2023-05-14T12:25:53.422Z,84.6588
2023-05-14T12:26:55.259Z,84.5327
2023-05-14T12:27:56.254Z,85.3912
2023-05-14T12:28:57.210Z,85.4158
2023-05-14T12:30:06.289Z,85.9929
2023-05-14T12:31:00.378Z,86.7430
2023-05-14T12:32:01.325Z,86.5734
2023-05-14T12:33:02.344Z,87.2315
2023-05-14T12:34:03.987Z,87.3106
2023-05-14T12:35:05.022Z,87.8619
2023-05-14T12:36:20.656Z,88.4705
2023-05-14T12:37:07.636Z,88.3183
2023-05-14T12:38:08.572Z,88.8241
2023-05-14T12:39:09.561Z,89.6662
2023-05-14T12:40:10.507Z,89.6044
2023-05-14T12:41:11.551Z,89.7538
2023-05-14T12:42:12.996Z,89.8161
2023-05-14T12:43:13.985Z,90.2748
2023-05-14T12:44:14.984Z,90.5769
2023-05-14T12:45:15.922Z,90.9049
2023-05-14T12:46:16.905Z,90.9937
2023-05-14T12:47:18.045Z,90.7009
2023-05-14T12:48:19.089Z,89.9065
2023-05-14T12:49:20.077Z,89.5431
2023-05-14T12:50:21.173Z,89.1656
2023-05-14T12:51:22.131Z,88.8946
2023-05-14T12:52:36.903Z,90.6470
2023-05-14T12:54:25.095Z,90.3083
2023-05-14T12:57:27.794Z,90.4279
2023-05-14T12:59:29.614Z,90.2097
2023-05-14T13:00:30.568Z,89.6096
2023-05-14T13:01:31.628Z,90.8327
2023-05-14T13:02:32.705Z,90.0620
2023-05-14T13:03:33.674Z,88.5214
2023-05-14T13:04:35.020Z,87.8404
2023-05-14T13:05:35.978Z,89.1967
2023-05-14T13:06:36.990Z,88.8572
2023-05-14T13:07:38.003Z,87.6472
2023-05-14T13:08:39.689Z,88.3421
2023-05-14T13:09:39.002Z,88.5129
2023-05-14T13:10:40.059Z,88.6107
2023-05-14T13:11:41.035Z,86.6182
2023-05-14T13:12:41.975Z,87.8325
2023-05-14T13:13:42.946Z,86.5760
2023-05-14T13:14:43.877Z,83.2060
2023-05-14T13:16:45.630Z,83.5113
2023-05-14T13:17:46.659Z,83.1311
2023-05-14T13:18:47.634Z,84.1137
2023-05-14T13:19:48.627Z,84.6661
2023-05-14T13:21:50.429Z,83.1543
2023-05-14T13:22:51.378Z,83.5650
2023-05-14T13:23:52.368Z,83.2050
2023-05-14T13:24:53.368Z,83.4529
2023-05-14T13:25:54.348Z,82.7377
2023-05-14T13:26:55.287Z,83.0286
2023-05-14T13:27:56.259Z,82.3731
2023-05-14T13:28:57.228Z,81.3961
2023-05-14T13:29:58.864Z,82.7043
2023-05-14T13:31:00.202Z,81.7349
2023-05-14T13:32:01.158Z,81.6325
2023-05-14T13:33:02.183Z,82.1621
2023-05-14T13:35:04.650Z,79.8340
2023-05-14T13:36:06.274Z,79.8494
2023-05-14T13:37:07.270Z,81.9773
2023-05-14T13:39:09.034Z,80.5184
2023-05-14T13:40:09.991Z,80.6468
2023-05-14T13:42:12.735Z,80.3612
2023-05-14T13:43:14.358Z,80.0912
2023-05-14T13:44:15.296Z,78.0157
2023-05-14T13:45:16.913Z,77.9407
2023-05-14T13:46:17.871Z,77.5725
2023-05-14T13:47:18.835Z,77.4612
2023-05-14T13:48:19.765Z,77.3545
2023-05-14T13:49:20.729Z,77.1984
2023-05-14T13:50:21.663Z,75.2011
2023-05-14T13:51:22.624Z,76.3606
2023-05-14T13:52:23.552Z,78.8116
2023-05-14T13:54:26.080Z,80.9761
2023-05-14T13:55:27.719Z,80.1771
2023-05-14T13:58:31.354Z,75.9619
2023-05-14T13:59:32.268Z,74.0964
2023-05-14T14:00:33.164Z,73.3040
2023-05-14T14:01:34.710Z,73.4508